Weather at Rio Medina Airport [CLOSED]

Public forecast

Using degrees Fahrenheit for public forecast. Weather courtesy of forecast.io.

Closest aviation weather report (METAR) to Rio Medina Airport

Closest report is Stinson Municipal Airport, 4.2 nm (7.8 km) N.

2024/07/14 15:53 (retrieved 49 minutes ago)

KSSF 141553Z 19008KT 10SM BKN016 BKN023 28/23 A3015 RMK AO2 SLP198 T02830233

Closest aviation forecast (TAF) to Rio Medina Airport

Closest forecast is Stinson Municipal Airport, 4.2 nm (7.8 km) N.

2024/07/14 12:36 (retrieved 4 hours ago)

TAF KSSF 141133Z 1412/1512 18005KT P6SM BKN010 BKN150 TEMPO 1412/1414 BKN009 FM141600 19006KT P6SM BKN025 FM141800 16007KT P6SM SCT040 BKN150 BKN250 FM150800 18005KT P6SM BKN015